createdAt,value
2019-06-26T00:02:06.489Z,60.51
2019-06-26T00:04:39.608Z,61.29
2019-06-26T00:07:12.770Z,61.95
2019-06-26T00:09:45.920Z,62.00
2019-06-26T00:12:19.315Z,61.49
2019-06-26T00:14:52.393Z,62.00
2019-06-26T00:17:25.360Z,62.07
2019-06-26T00:19:58.539Z,62.31
2019-06-26T00:22:31.592Z,62.34
2019-06-26T00:25:04.547Z,62.25
2019-06-26T00:27:37.541Z,61.92
2019-06-26T00:30:11.541Z,61.88
2019-06-26T00:32:44.632Z,62.08
2019-06-26T00:35:17.916Z,62.07
2019-06-26T00:37:50.946Z,61.68
2019-06-26T00:40:24.031Z,62.04
2019-06-26T00:42:57.441Z,62.62
2019-06-26T00:45:30.477Z,62.21
2019-06-26T00:48:03.410Z,62.83
2019-06-26T00:50:36.471Z,62.99
2019-06-26T00:53:09.606Z,62.53
2019-06-26T00:55:42.683Z,63.23
2019-06-26T00:58:15.610Z,63.53
2019-06-26T01:00:52.285Z,62.95
2019-06-26T01:03:25.356Z,63.43
2019-06-26T01:05:58.395Z,63.80
2019-06-26T01:08:31.433Z,63.55
2019-06-26T01:11:04.644Z,63.81
2019-06-26T01:13:37.601Z,63.79
2019-06-26T01:16:10.747Z,63.45
2019-06-26T01:18:43.853Z,63.40
2019-06-26T01:21:17.028Z,63.84
2019-06-26T01:23:50.213Z,64.03
2019-06-26T01:26:23.836Z,63.90
2019-06-26T01:28:57.083Z,63.68
2019-06-26T01:31:30.152Z,63.44
2019-06-26T01:34:03.151Z,63.47
2019-06-26T01:36:36.041Z,64.00
2019-06-26T01:39:10.387Z,64.12
2019-06-26T01:41:44.701Z,64.83
2019-06-26T01:44:17.758Z,64.74
2019-06-26T01:46:50.735Z,64.25
2019-06-26T01:49:23.837Z,64.56
2019-06-26T01:51:56.815Z,64.62
2019-06-26T01:54:29.793Z,64.67
2019-06-26T01:57:02.735Z,65.17
2019-06-26T01:59:35.838Z,65.52
2019-06-26T02:02:08.972Z,65.56
2019-06-26T02:04:41.984Z,65.57
2019-06-26T02:07:15.876Z,66.14
2019-06-26T02:09:48.845Z,65.66
2019-06-26T02:12:21.949Z,65.41
2019-06-26T02:14:55.046Z,65.56
2019-06-26T02:17:28.069Z,66.70
2019-06-26T02:20:01.133Z,65.67
2019-06-26T02:22:35.534Z,66.18
2019-06-26T02:25:09.463Z,65.87
2019-06-26T02:27:42.555Z,66.57
2019-06-26T02:30:15.729Z,66.87
2019-06-26T02:32:49.056Z,66.57
2019-06-26T02:35:23.311Z,66.06
2019-06-26T02:37:56.286Z,66.24
2019-06-26T02:40:29.306Z,66.09
2019-06-26T02:43:06.638Z,65.95
2019-06-26T02:45:37.779Z,66.21
2019-06-26T02:48:10.868Z,65.97
2019-06-26T02:50:44.023Z,66.54
2019-06-26T02:53:17.043Z,66.49
2019-06-26T02:55:49.971Z,66.39
2019-06-26T02:58:22.972Z,66.95
2019-06-26T03:00:56.001Z,67.22
2019-06-26T03:03:29.241Z,67.38
2019-06-26T03:06:02.141Z,67.60
2019-06-26T03:08:35.075Z,67.35
2019-06-26T03:11:08.150Z,67.30
2019-06-26T03:13:41.155Z,67.15
2019-06-26T03:16:14.141Z,67.19
2019-06-26T03:18:47.179Z,66.82
2019-06-26T03:21:20.213Z,66.80
2019-06-26T03:23:53.297Z,66.64
2019-06-26T03:26:27.405Z,66.75
2019-06-26T03:29:00.350Z,66.53
2019-06-26T03:31:33.323Z,66.43
2019-06-26T03:34:06.364Z,66.22
2019-06-26T03:36:39.349Z,66.58
2019-06-26T03:39:12.470Z,66.14
2019-06-26T03:41:45.423Z,65.75
2019-06-26T03:44:18.506Z,65.68
2019-06-26T03:46:51.559Z,65.31
2019-06-26T03:49:24.528Z,65.42
2019-06-26T03:51:57.514Z,65.41
2019-06-26T03:54:30.570Z,65.27
2019-06-26T03:57:03.505Z,64.85
2019-06-26T03:59:36.524Z,64.47
2019-06-26T04:02:09.497Z,64.16
2019-06-26T04:04:42.402Z,63.66
2019-06-26T04:07:15.378Z,63.50
2019-06-26T04:09:48.535Z,63.10
2019-06-26T04:12:21.551Z,62.73
2019-06-26T04:14:54.488Z,62.28
2019-06-26T04:17:27.588Z,61.94
2019-06-26T04:20:00.625Z,61.94
2019-06-26T04:22:33.653Z,61.62
2019-06-26T04:25:07.374Z,61.16
2019-06-26T04:27:40.380Z,60.85
2019-06-26T04:30:13.883Z,60.59
2019-06-26T04:32:46.908Z,60.53
2019-06-26T04:35:19.930Z,60.10
2019-06-26T04:37:52.978Z,60.04
2019-06-26T04:40:25.985Z,59.86
2019-06-26T04:42:59.085Z,59.59
2019-06-26T04:45:32.125Z,59.29
2019-06-26T04:48:07.215Z,58.70
2019-06-26T04:50:39.994Z,58.40
2019-06-26T04:53:12.987Z,58.17
2019-06-26T04:55:47.267Z,57.76
2019-06-26T04:58:20.194Z,57.36
2019-06-26T05:00:53.232Z,56.99
2019-06-26T05:03:26.233Z,56.45
2019-06-26T05:05:59.209Z,56.19
2019-06-26T05:08:32.242Z,56.25
2019-06-26T05:11:05.192Z,55.92
2019-06-26T05:13:38.187Z,55.31
2019-06-26T05:16:15.653Z,54.95
2019-06-26T05:18:45.939Z,54.44
2019-06-26T05:21:19.041Z,54.46
2019-06-26T05:23:51.998Z,54.08
2019-06-26T05:26:25.082Z,53.65
2019-06-26T05:28:58.026Z,53.70
2019-06-26T05:31:30.998Z,53.37
2019-06-26T05:34:03.879Z,52.89
2019-06-26T05:36:36.883Z,53.00
2019-06-26T05:39:09.842Z,52.82
2019-06-26T05:41:42.925Z,52.55
2019-06-26T05:44:15.836Z,52.35
2019-06-26T05:46:48.838Z,51.52
2019-06-26T05:49:21.942Z,51.48
2019-06-26T05:51:54.935Z,51.04
2019-06-26T05:54:27.842Z,50.85
2019-06-26T05:57:00.971Z,50.34
2019-06-26T05:59:33.939Z,50.13
2019-06-26T06:02:07.344Z,50.09
2019-06-26T06:04:40.234Z,49.01
2019-06-26T06:07:13.238Z,48.93
2019-06-26T06:09:46.127Z,48.26
2019-06-26T06:12:19.035Z,48.00
2019-06-26T06:14:52.179Z,47.69
2019-06-26T06:17:25.081Z,47.59
2019-06-26T06:19:58.115Z,47.33
2019-06-26T06:22:31.080Z,47.35
2019-06-26T06:25:04.874Z,47.14
2019-06-26T06:27:37.837Z,47.16
2019-06-26T06:30:11.486Z,46.66
2019-06-26T06:32:44.458Z,46.16
2019-06-26T06:35:17.416Z,45.49
2019-06-26T06:37:50.425Z,44.95
2019-06-26T06:40:23.562Z,44.38
2019-06-26T06:42:57.285Z,44.18
2019-06-26T06:45:31.632Z,43.85
2019-06-26T06:48:04.782Z,42.91
2019-06-26T06:50:37.867Z,41.90
2019-06-26T06:53:11.006Z,41.26
2019-06-26T06:55:43.962Z,40.93
2019-06-26T06:58:16.955Z,41.03
2019-06-26T07:00:49.912Z,40.55
2019-06-26T07:03:23.267Z,40.39
2019-06-26T07:05:56.285Z,40.16
2019-06-26T07:08:29.312Z,39.65
2019-06-26T07:11:02.317Z,39.46
2019-06-26T07:13:35.768Z,39.47
2019-06-26T07:16:08.760Z,38.83
2019-06-26T07:18:41.847Z,38.83
2019-06-26T07:21:14.906Z,38.58
2019-06-26T07:23:48.060Z,38.27
2019-06-26T07:26:21.172Z,38.26
2019-06-26T07:28:54.008Z,37.34
2019-06-26T07:31:27.097Z,37.14
2019-06-26T07:34:00.094Z,36.45
2019-06-26T07:36:33.508Z,36.71
2019-06-26T07:39:08.813Z,36.09
2019-06-26T07:41:41.789Z,35.67
2019-06-26T07:44:14.676Z,35.92
2019-06-26T07:46:47.686Z,35.85
2019-06-26T07:49:20.650Z,34.83
2019-06-26T07:51:53.796Z,34.28
2019-06-26T07:54:27.574Z,34.72
2019-06-26T07:57:00.582Z,34.59
2019-06-26T07:59:34.633Z,33.40
2019-06-26T08:02:07.756Z,33.12
2019-06-26T08:04:40.742Z,33.14
2019-06-26T08:07:13.827Z,33.40
2019-06-26T08:09:46.838Z,32.96
2019-06-26T08:12:19.873Z,32.48
2019-06-26T08:14:52.915Z,31.71
2019-06-26T08:17:25.856Z,30.87
2019-06-26T08:19:58.823Z,30.91
2019-06-26T08:22:31.817Z,30.38
2019-06-26T08:25:05.987Z,29.88
2019-06-26T08:27:39.204Z,29.89
2019-06-26T08:30:12.723Z,29.38
2019-06-26T08:32:45.914Z,29.07
2019-06-26T08:35:19.315Z,28.73
2019-06-26T08:38:05.663Z,27.66
2019-06-26T08:40:27.174Z,28.05
2019-06-26T08:43:00.228Z,28.08
2019-06-26T08:45:33.134Z,27.26
2019-06-26T08:48:18.918Z,26.73
2019-06-26T08:50:41.949Z,26.08
2019-06-26T08:53:14.910Z,26.27
2019-06-26T08:55:47.916Z,26.29
2019-06-26T08:58:20.921Z,26.71
2019-06-26T09:00:53.859Z,25.62
2019-06-26T09:03:26.819Z,24.61
2019-06-26T09:05:59.963Z,24.45
2019-06-26T09:08:33.165Z,24.93
2019-06-26T09:11:06.331Z,24.75
2019-06-26T09:13:41.956Z,25.19
2019-06-26T09:16:18.170Z,24.80
2019-06-26T09:18:55.437Z,24.50
2019-06-26T09:21:31.242Z,24.38
2019-06-26T09:24:05.829Z,24.42
2019-06-26T09:26:41.046Z,24.76
2019-06-26T09:29:17.249Z,24.85
2019-06-26T09:31:50.438Z,24.57
2019-06-26T09:34:23.488Z,24.60
2019-06-26T09:37:00.857Z,24.67
2019-06-26T09:39:33.899Z,24.46
2019-06-26T09:42:09.707Z,24.35
2019-06-26T09:44:42.708Z,25.05
2019-06-26T09:47:15.807Z,24.72
2019-06-26T09:49:48.950Z,24.46
2019-06-26T09:52:22.171Z,24.55
2019-06-26T09:54:58.363Z,24.90
2019-06-26T09:57:31.431Z,25.10
2019-06-26T10:00:05.199Z,25.37
2019-06-26T10:02:40.662Z,25.00
2019-06-26T10:05:14.947Z,25.19
2019-06-26T10:07:48.539Z,24.80
2019-06-26T10:10:24.501Z,24.61
2019-06-26T10:13:03.536Z,24.24
2019-06-26T10:15:36.605Z,24.36
2019-06-26T10:18:09.850Z,24.24
2019-06-26T10:20:51.832Z,24.24
2019-06-26T10:23:24.828Z,24.17
2019-06-26T10:25:58.265Z,24.22
2019-06-26T10:28:34.498Z,24.46
2019-06-26T10:31:07.447Z,24.43
2019-06-26T10:33:41.731Z,24.88
2019-06-26T10:36:18.209Z,24.53
2019-06-26T10:38:52.151Z,24.49
2019-06-26T10:41:24.970Z,24.42
2019-06-26T10:43:58.009Z,23.96
2019-06-26T10:46:31.126Z,23.64
2019-06-26T10:49:04.185Z,23.40
2019-06-26T10:51:37.693Z,23.09
2019-06-26T10:54:10.649Z,23.18
2019-06-26T10:56:43.738Z,23.52
2019-06-26T10:59:19.863Z,24.07
2019-06-26T11:01:54.195Z,23.58
2019-06-26T11:04:27.166Z,22.96
2019-06-26T11:07:00.738Z,22.85
2019-06-26T11:09:36.991Z,22.38
2019-06-26T11:12:09.956Z,23.00
2019-06-26T11:14:44.341Z,22.44
2019-06-26T11:17:17.454Z,22.09
2019-06-26T11:19:55.229Z,21.36
2019-06-26T11:22:26.635Z,21.39
2019-06-26T11:25:00.954Z,21.40
2019-06-26T11:27:34.141Z,21.43
2019-06-26T11:30:11.168Z,21.61
2019-06-26T11:32:44.482Z,20.96
2019-06-26T11:35:17.773Z,20.85
2019-06-26T11:37:50.777Z,20.75
2019-06-26T11:40:25.401Z,20.56
2019-06-26T11:43:01.520Z,20.34
2019-06-26T11:45:37.568Z,20.21
2019-06-26T11:48:11.757Z,20.09
2019-06-26T11:50:44.679Z,19.80
2019-06-26T11:53:17.710Z,20.24
2019-06-26T11:55:52.342Z,20.46
2019-06-26T11:58:25.908Z,20.35
2019-06-26T12:01:02.089Z,20.51
2019-06-26T12:03:35.184Z,20.78
2019-06-26T12:06:18.266Z,20.34
2019-06-26T12:08:43.419Z,20.49
2019-06-26T12:11:16.292Z,20.27
2019-06-26T12:13:49.492Z,20.41
2019-06-26T12:16:22.641Z,20.69
2019-06-26T12:18:55.812Z,20.22
2019-06-26T12:21:28.927Z,20.35
2019-06-26T12:24:02.066Z,20.21
2019-06-26T12:26:35.249Z,20.51
2019-06-26T12:29:08.793Z,20.05
2019-06-26T12:31:41.812Z,20.22
2019-06-26T12:34:15.195Z,19.75
2019-06-26T12:36:48.464Z,19.39
2019-06-26T12:39:21.711Z,19.67
2019-06-26T12:41:55.277Z,20.55
2019-06-26T12:44:28.612Z,20.46
2019-06-26T12:47:09.992Z,19.44
2019-06-26T12:49:43.737Z,18.99
2019-06-26T12:52:17.158Z,19.48
2019-06-26T12:54:51.462Z,19.60
2019-06-26T12:57:24.487Z,19.29
2019-06-26T12:59:58.129Z,19.38
2019-06-26T13:02:31.273Z,19.51
2019-06-26T13:05:04.470Z,19.21
2019-06-26T13:07:37.457Z,19.33
2019-06-26T13:10:11.468Z,19.60
2019-06-26T13:12:46.054Z,19.15
2019-06-26T13:15:19.946Z,19.49
2019-06-26T13:17:53.229Z,19.71
2019-06-26T13:20:26.420Z,19.89
2019-06-26T13:22:59.549Z,19.90
2019-06-26T13:25:32.837Z,19.55
2019-06-26T13:28:06.820Z,19.63
2019-06-26T13:30:40.507Z,19.53
2019-06-26T13:33:13.616Z,19.58
2019-06-26T13:35:46.825Z,19.43
2019-06-26T13:38:19.764Z,18.31
2019-06-26T13:40:52.824Z,17.90
2019-06-26T13:43:25.710Z,17.89
2019-06-26T13:45:59.010Z,17.41
2019-06-26T13:48:32.008Z,17.81
2019-06-26T13:51:09.620Z,17.91
2019-06-26T13:53:39.801Z,18.06
2019-06-26T13:56:12.901Z,18.49
2019-06-26T13:58:45.942Z,18.52
2019-06-26T14:01:22.788Z,18.54
2019-06-26T14:03:53.866Z,18.65
2019-06-26T14:06:26.903Z,18.65
2019-06-26T14:08:59.832Z,18.57
2019-06-26T14:11:32.766Z,19.06
2019-06-26T14:14:05.783Z,19.54
2019-06-26T14:16:39.864Z,19.18
2019-06-26T14:19:12.981Z,19.00
2019-06-26T14:21:46.328Z,19.24
2019-06-26T14:24:19.681Z,19.21
2019-06-26T14:26:53.123Z,19.19
2019-06-26T14:29:29.333Z,19.46
2019-06-26T14:32:03.420Z,19.31
2019-06-26T14:34:36.691Z,19.88
2019-06-26T14:37:10.046Z,20.04
2019-06-26T14:39:43.348Z,20.26
2019-06-26T14:42:16.372Z,20.09
2019-06-26T14:44:52.618Z,20.09
2019-06-26T14:47:24.346Z,19.81
2019-06-26T14:49:58.375Z,20.24
2019-06-26T14:52:34.191Z,19.99
2019-06-26T14:55:07.030Z,20.29
2019-06-26T14:57:40.407Z,20.29
2019-06-26T15:00:14.676Z,20.44
2019-06-26T15:02:47.667Z,20.61
2019-06-26T15:05:20.823Z,20.60
2019-06-26T15:07:53.791Z,20.21
2019-06-26T15:10:26.837Z,20.59
2019-06-26T15:12:59.738Z,20.96
2019-06-26T15:15:33.126Z,21.34
2019-06-26T15:18:06.193Z,21.38
2019-06-26T15:20:39.120Z,21.63
2019-06-26T15:23:12.222Z,21.75
2019-06-26T15:25:45.144Z,22.03
2019-06-26T15:28:18.303Z,22.19
2019-06-26T15:30:51.317Z,22.44
2019-06-26T15:33:24.293Z,22.70
2019-06-26T15:35:57.428Z,22.77
2019-06-26T15:38:30.486Z,23.57
2019-06-26T15:41:03.370Z,23.47
2019-06-26T15:43:36.345Z,23.49
2019-06-26T15:46:09.423Z,22.93
2019-06-26T15:48:42.652Z,22.85
2019-06-26T15:51:15.602Z,23.07
2019-06-26T15:53:48.549Z,22.70
2019-06-26T15:56:21.458Z,22.90
2019-06-26T15:58:54.641Z,22.79
2019-06-26T16:01:27.650Z,22.00
2019-06-26T16:04:00.654Z,22.08
2019-06-26T16:06:33.606Z,22.09
2019-06-26T16:09:07.749Z,22.17
2019-06-26T16:11:40.672Z,22.15
2019-06-26T16:14:13.683Z,22.19
2019-06-26T16:16:48.210Z,22.13
2019-06-26T16:19:22.553Z,22.10
2019-06-26T16:21:55.487Z,22.02
2019-06-26T16:24:30.267Z,22.71
2019-06-26T16:27:03.603Z,23.08
2019-06-26T16:29:36.497Z,23.36
2019-06-26T16:32:09.576Z,23.66
2019-06-26T16:34:42.675Z,23.92
2019-06-26T16:37:15.669Z,23.90
2019-06-26T16:39:48.925Z,24.11
2019-06-26T16:42:21.892Z,24.26
2019-06-26T16:44:54.800Z,24.30
2019-06-26T16:47:28.047Z,24.22
2019-06-26T16:50:02.691Z,24.57
2019-06-26T16:52:48.671Z,24.87
2019-06-26T16:55:12.542Z,24.94
2019-06-26T16:57:45.640Z,25.04
2019-06-26T17:00:19.266Z,24.80
2019-06-26T17:02:55.416Z,24.77
2019-06-26T17:05:31.332Z,24.58
2019-06-26T17:08:04.490Z,24.86
2019-06-26T17:10:37.752Z,24.74
2019-06-26T17:13:13.927Z,24.37
2019-06-26T17:15:47.237Z,24.63
2019-06-26T17:18:20.381Z,24.72
2019-06-26T17:20:53.481Z,24.98
2019-06-26T17:23:27.650Z,24.94
2019-06-26T17:26:00.662Z,25.21
2019-06-26T17:28:33.786Z,25.09
2019-06-26T17:31:07.190Z,25.53
2019-06-26T17:33:40.364Z,25.49
2019-06-26T17:36:13.308Z,25.49
2019-06-26T17:38:46.434Z,25.73
2019-06-26T17:41:19.485Z,25.81
2019-06-26T17:43:52.618Z,25.88
2019-06-26T17:46:25.786Z,26.16
2019-06-26T17:49:01.535Z,26.25
2019-06-26T17:51:34.616Z,26.45
2019-06-26T17:54:07.751Z,26.81
2019-06-26T17:56:40.718Z,27.09
2019-06-26T17:59:13.943Z,27.47
2019-06-26T18:01:47.112Z,27.79
2019-06-26T18:04:20.231Z,27.92
2019-06-26T18:06:53.223Z,28.02
2019-06-26T18:09:26.209Z,28.37
2019-06-26T18:11:59.224Z,28.65
2019-06-26T18:14:32.282Z,28.84
2019-06-26T18:17:17.937Z,29.05
2019-06-26T18:19:39.949Z,29.32
2019-06-26T18:22:13.297Z,29.47
2019-06-26T18:24:46.414Z,29.76
2019-06-26T18:27:19.549Z,29.90
2019-06-26T18:29:52.841Z,29.70
2019-06-26T18:32:25.959Z,29.57
2019-06-26T18:34:59.025Z,29.51
2019-06-26T18:37:31.947Z,29.56
2019-06-26T18:40:05.496Z,29.64
2019-06-26T18:42:40.847Z,29.81
2019-06-26T18:45:14.039Z,29.97
2019-06-26T18:47:47.534Z,30.12
2019-06-26T18:50:20.806Z,30.25
2019-06-26T18:52:53.856Z,30.42
2019-06-26T18:55:28.350Z,30.52
2019-06-26T18:58:01.634Z,30.73
2019-06-26T19:00:35.043Z,30.83
2019-06-26T19:03:12.264Z,31.12
2019-06-26T19:05:46.657Z,31.34
2019-06-26T19:08:21.488Z,31.57
2019-06-26T19:10:55.121Z,31.77
2019-06-26T19:13:28.655Z,31.98
2019-06-26T19:16:04.437Z,32.12
2019-06-26T19:18:38.462Z,32.31
2019-06-26T19:21:12.208Z,32.57
2019-06-26T19:23:45.378Z,32.74
2019-06-26T19:26:18.667Z,33.03
2019-06-26T19:28:52.164Z,33.08
2019-06-26T19:31:26.252Z,33.28
2019-06-26T19:34:01.097Z,33.05
2019-06-26T19:36:49.166Z,33.05
2019-06-26T19:39:10.034Z,33.74
2019-06-26T19:41:46.438Z,33.94
2019-06-26T19:44:19.899Z,34.27
2019-06-26T19:46:55.536Z,34.96
2019-06-26T19:49:29.247Z,35.17
2019-06-26T19:52:03.219Z,35.62
2019-06-26T19:54:39.401Z,36.03
2019-06-26T19:57:13.166Z,36.69
2019-06-26T19:59:47.419Z,37.17
2019-06-26T20:02:21.534Z,37.71
2019-06-26T20:04:55.115Z,38.05
2019-06-26T20:07:28.197Z,38.69
2019-06-26T20:10:02.070Z,39.27
2019-06-26T20:12:35.410Z,39.85
2019-06-26T20:15:09.542Z,40.36
2019-06-26T20:17:42.620Z,40.58
2019-06-26T20:20:16.168Z,40.86
2019-06-26T20:22:49.904Z,41.26
2019-06-26T20:25:22.944Z,41.57
2019-06-26T20:27:57.126Z,41.85
2019-06-26T20:30:33.625Z,41.94
2019-06-26T20:33:06.560Z,42.14
2019-06-26T20:35:39.515Z,42.42
2019-06-26T20:38:12.598Z,42.69
2019-06-26T20:40:46.240Z,42.80
2019-06-26T20:43:19.420Z,43.73
2019-06-26T20:45:52.556Z,43.48
2019-06-26T20:48:25.735Z,43.68
2019-06-26T20:50:58.950Z,44.11
2019-06-26T20:53:32.077Z,44.29
2019-06-26T20:56:05.744Z,44.68
2019-06-26T20:58:38.997Z,44.71
2019-06-26T21:01:11.974Z,44.92
2019-06-26T21:03:45.055Z,45.18
2019-06-26T21:06:17.987Z,45.43
2019-06-26T21:08:51.076Z,45.70
2019-06-26T21:11:24.090Z,45.82
2019-06-26T21:13:57.122Z,46.12
2019-06-26T21:16:30.102Z,46.21
2019-06-26T21:19:03.347Z,46.46
2019-06-26T21:21:36.679Z,46.60
2019-06-26T21:24:09.774Z,47.02
2019-06-26T21:26:42.901Z,46.98
2019-06-26T21:29:15.818Z,46.42
2019-06-26T21:31:48.823Z,46.39
2019-06-26T21:34:21.774Z,46.65
2019-06-26T21:36:54.779Z,46.44
2019-06-26T21:39:27.758Z,46.48
2019-06-26T21:42:00.939Z,46.49
2019-06-26T21:44:34.087Z,46.63
2019-06-26T21:47:07.370Z,46.98
2019-06-26T21:49:40.345Z,47.04
2019-06-26T21:52:13.464Z,47.34
2019-06-26T21:54:46.658Z,47.49
2019-06-26T21:57:37.430Z,47.70
2019-06-26T22:00:30.146Z,47.97
2019-06-26T22:03:21.289Z,48.46
2019-06-26T22:05:56.003Z,48.47
2019-06-26T22:08:42.618Z,48.76
2019-06-26T22:11:17.439Z,49.20
2019-06-26T22:13:50.653Z,49.15
2019-06-26T22:16:24.269Z,49.30
2019-06-26T22:18:58.375Z,49.67
2019-06-26T22:21:31.462Z,49.80
2019-06-26T22:24:05.520Z,49.95
2019-06-26T22:26:38.668Z,50.07
2019-06-26T22:29:11.590Z,50.18
2019-06-26T22:31:44.637Z,50.46
2019-06-26T22:34:17.620Z,50.60
2019-06-26T22:36:52.202Z,50.76
2019-06-26T22:39:25.471Z,50.80
2019-06-26T22:41:58.665Z,50.93
2019-06-26T22:44:31.588Z,51.18
2019-06-26T22:47:04.607Z,51.14
2019-06-26T22:49:39.347Z,51.23
2019-06-26T22:52:12.484Z,51.47
2019-06-26T22:54:46.200Z,51.31
2019-06-26T22:57:19.448Z,51.27
2019-06-26T22:59:52.491Z,51.31
2019-06-26T23:02:25.529Z,51.80
2019-06-26T23:04:58.600Z,51.87
2019-06-26T23:07:31.665Z,51.98
2019-06-26T23:10:05.137Z,52.47
2019-06-26T23:12:38.267Z,52.40
2019-06-26T23:15:11.373Z,52.83
2019-06-26T23:17:44.589Z,52.38
2019-06-26T23:20:17.998Z,50.79
2019-06-26T23:22:51.105Z,50.24
2019-06-26T23:25:25.142Z,49.79
2019-06-26T23:27:58.195Z,49.48
2019-06-26T23:30:31.101Z,48.83
2019-06-26T23:33:04.039Z,48.78
2019-06-26T23:35:37.210Z,48.75
2019-06-26T23:38:10.207Z,48.98
2019-06-26T23:40:43.272Z,48.77
2019-06-26T23:43:16.332Z,48.47
2019-06-26T23:45:49.257Z,48.12
2019-06-26T23:48:22.528Z,47.91
2019-06-26T23:50:55.438Z,48.08
2019-06-26T23:53:28.383Z,47.69
2019-06-26T23:56:01.452Z,47.43
2019-06-26T23:58:34.359Z,46.90
